Time;durP1;ratioP1;P1;durP2;ratioP2;P2;SDS_P1;SDS_P2;PMS_P1;PMS_P2;Temp;Humidity;BMP_temperature;BMP_pressure;BME280_temperature;BME280_humidity;BME280_pressure;Samples;Min_cycle;Max_cycle;Signal;HPM_P1;HPM_P2
2024/02/23 00:01:54;;;;;;;13.30;10.63;;;;;;;;;;5092502;28;20568;-86
2024/02/23 00:04:21;;;;;;;12.17;9.03;;;;;;;;;;5107431;28;20581;-87
2024/02/23 00:06:48;;;;;;;13.37;11.17;;;;;;;;;;5098986;28;20286;-86
2024/02/23 00:09:16;;;;;;;10.53;9.33;;;;;;;;;;5099049;28;20195;-86
2024/02/23 00:11:44;;;;;;;11.70;9.63;;;;;;;;;;5091087;28;20196;-87
2024/02/23 00:14:11;;;;;;;10.53;9.37;;;;;;;;;;5091759;28;20577;-86
2024/02/23 00:16:39;;;;;;;10.00;8.80;;;;;;;;;;5091307;28;20203;-86
2024/02/23 00:19:06;;;;;;;13.80;10.73;;;;;;;;;;5091129;28;20769;-86
2024/02/23 00:21:33;;;;;;;10.03;8.57;;;;;;;;;;5091632;28;20196;-86
2024/02/23 00:24:00;;;;;;;14.17;9.57;;;;;;;;;;5090745;28;20208;-86
2024/02/23 00:26:28;;;;;;;14.63;9.80;;;;;;;;;;5091385;28;20211;-86
2024/02/23 00:28:55;;;;;;;10.30;9.17;;;;;;;;;;5090330;28;20246;-86
2024/02/23 00:31:22;;;;;;;10.00;8.97;;;;;;;;;;5090984;28;20203;-85
2024/02/23 00:33:49;;;;;;;12.00;10.03;;;;;;;;;;5073490;28;20225;-86
2024/02/23 00:36:16;;;;;;;12.00;9.57;;;;;;;;;;5091592;28;20218;-85
2024/02/23 00:38:43;;;;;;;12.63;10.30;;;;;;;;;;5091245;28;20223;-86
2024/02/23 00:41:10;;;;;;;12.60;10.97;;;;;;;;;;5091595;28;20219;-86
2024/02/23 00:43:40;;;;;;;16.63;11.90;;;;;;;;;;5090901;28;20200;-87
2024/02/23 00:46:07;;;;;;;43.63;26.27;;;;;;;;;;5090966;28;20724;-86
2024/02/23 00:48:34;;;;;;;20.57;16.73;;;;;;;;;;5091231;28;20666;-86
2024/02/23 00:51:02;;;;;;;15.97;11.80;;;;;;;;;;5091077;28;20261;-86
2024/02/23 00:53:29;;;;;;;19.80;13.27;;;;;;;;;;5091047;28;20197;-85
2024/02/23 00:55:56;;;;;;;14.87;12.07;;;;;;;;;;5090686;28;20204;-86
2024/02/23 00:58:22;;;;;;;15.83;12.33;;;;;;;;;;5091081;28;20216;-85
2024/02/23 01:00:51;;;;;;;14.93;11.57;;;;;;;;;;5090671;28;20257;-85
2024/02/23 01:03:17;;;;;;;13.70;11.00;;;;;;;;;;5090932;28;20257;-86
2024/02/23 01:05:44;;;;;;;13.63;11.70;;;;;;;;;;5088265;28;20200;-86
2024/02/23 01:08:11;;;;;;;13.87;11.10;;;;;;;;;;5073571;28;20203;-85
2024/02/23 01:10:38;;;;;;;11.63;10.47;;;;;;;;;;5106311;28;20210;-86
2024/02/23 01:13:05;;;;;;;14.17;11.87;;;;;;;;;;5094689;28;20203;-86
2024/02/23 01:15:32;;;;;;;16.80;12.00;;;;;;;;;;5094592;28;20204;-86
2024/02/23 01:18:00;;;;;;;17.50;13.47;;;;;;;;;;5104840;28;20203;-86
2024/02/23 01:20:27;;;;;;;17.43;13.23;;;;;;;;;;5089534;28;20224;-85
2024/02/23 01:22:53;;;;;;;23.93;16.10;;;;;;;;;;5090154;28;20200;-86
2024/02/23 01:25:20;;;;;;;23.80;16.90;;;;;;;;;;5096566;28;20211;-86
2024/02/23 01:27:48;;;;;;;54.60;39.10;;;;;;;;;;5106718;28;20200;-86
2024/02/23 01:30:14;;;;;;;50.17;35.77;;;;;;;;;;5094457;28;20200;-88
2024/02/23 01:32:41;;;;;;;31.47;24.30;;;;;;;;;;5077397;28;20207;-86
2024/02/23 01:35:10;;;;;;;16.73;12.60;;;;;;;;;;5094190;28;20231;-86
2024/02/23 01:37:37;;;;;;;13.80;11.10;;;;;;;;;;5094063;28;20192;-86
2024/02/23 01:40:04;;;;;;;15.37;11.60;;;;;;;;;;5094037;28;20633;-86
2024/02/23 01:42:31;;;;;;;14.60;12.03;;;;;;;;;;5093827;28;20207;-86
2024/02/23 01:44:58;;;;;;;13.30;11.10;;;;;;;;;;5103348;28;20677;-86
2024/02/23 01:47:25;;;;;;;12.40;10.83;;;;;;;;;;5079542;28;20208;-86
2024/02/23 01:49:52;;;;;;;17.03;12.17;;;;;;;;;;5093645;28;20207;-87
2024/02/23 01:52:21;;;;;;;17.37;13.53;;;;;;;;;;5094307;28;20261;-87
2024/02/23 01:54:48;;;;;;;14.43;11.23;;;;;;;;;;5097198;28;20194;-87
2024/02/23 01:57:15;;;;;;;13.10;10.60;;;;;;;;;;5096797;28;20703;-86
2024/02/23 01:59:42;;;;;;;14.27;10.53;;;;;;;;;;5103303;28;20211;-85
2024/02/23 02:02:09;;;;;;;12.80;11.13;;;;;;;;;;5114713;28;20566;-87
2024/02/23 02:04:36;;;;;;;14.03;11.57;;;;;;;;;;5102357;28;20196;-86
2024/02/23 02:07:03;;;;;;;14.07;11.50;;;;;;;;;;5093756;28;20257;-86
2024/02/23 02:09:31;;;;;;;28.43;17.77;;;;;;;;;;5094003;28;20197;-87
2024/02/23 02:11:58;;;;;;;20.33;14.03;;;;;;;;;;5093596;28;20207;-86
2024/02/23 02:14:25;;;;;;;29.40;21.43;;;;;;;;;;5093347;28;20196;-87
2024/02/23 02:16:52;;;;;;;85.57;41.73;;;;;;;;;;5094349;28;20196;-87
2024/02/23 02:19:19;;;;;;;48.77;25.53;;;;;;;;;;5105396;28;20265;-86
2024/02/23 02:21:46;;;;;;;38.37;23.07;;;;;;;;;;5093164;28;20208;-86
2024/02/23 02:24:12;;;;;;;28.10;19.17;;;;;;;;;;5093400;28;20189;-85
2024/02/23 02:26:42;;;;;;;18.10;13.83;;;;;;;;;;5093537;28;20200;-86
2024/02/23 02:29:09;;;;;;;21.33;16.50;;;;;;;;;;5092608;28;20192;-86
2024/02/23 02:31:37;;;;;;;15.77;12.23;;;;;;;;;;5093840;28;20196;-86
2024/02/23 02:34:04;;;;;;;15.33;11.43;;;;;;;;;;5101226;28;20315;-86
2024/02/23 02:36:31;;;;;;;16.87;11.13;;;;;;;;;;5104418;28;20634;-86
2024/02/23 02:38:58;;;;;;;17.87;11.40;;;;;;;;;;5095192;28;20620;-86
2024/02/23 02:41:25;;;;;;;16.43;12.57;;;;;;;;;;5101635;28;20692;-86
2024/02/23 02:43:53;;;;;;;15.77;11.70;;;;;;;;;;5100759;28;20203;-86
2024/02/23 02:46:20;;;;;;;19.73;14.47;;;;;;;;;;5092822;28;20188;-86
2024/02/23 02:48:47;;;;;;;15.77;13.23;;;;;;;;;;5092686;28;20253;-86
2024/02/23 02:51:13;;;;;;;16.73;13.20;;;;;;;;;;5092983;28;20271;-86
2024/02/23 02:53:40;;;;;;;17.20;13.63;;;;;;;;;;5092424;28;20199;-86
2024/02/23 02:56:07;;;;;;;16.37;12.57;;;;;;;;;;5101391;28;20200;-86
2024/02/23 02:58:34;;;;;;;15.00;12.30;;;;;;;;;;5092745;28;20278;-86
2024/02/23 03:01:02;;;;;;;15.30;12.93;;;;;;;;;;5092505;28;21084;-89
2024/02/23 03:03:29;;;;;;;15.83;12.97;;;;;;;;;;5092896;28;20200;-86
2024/02/23 03:05:56;;;;;;;12.57;11.27;;;;;;;;;;5076945;28;20259;-87
2024/02/23 03:08:22;;;;;;;15.37;13.53;;;;;;;;;;5086021;28;20200;-87
2024/02/23 03:10:49;;;;;;;15.17;12.10;;;;;;;;;;5092436;28;20196;-86
2024/02/23 03:13:16;;;;;;;14.23;11.50;;;;;;;;;;5092591;28;20609;-87
2024/02/23 03:15:43;;;;;;;14.90;11.63;;;;;;;;;;5087331;28;20620;-85
2024/02/23 03:18:11;;;;;;;16.27;12.33;;;;;;;;;;5101290;28;20257;-86
2024/02/23 03:20:38;;;;;;;15.60;12.70;;;;;;;;;;5100337;28;20620;-86
2024/02/23 03:23:05;;;;;;;18.93;13.37;;;;;;;;;;5088619;28;20582;-86
2024/02/23 03:25:31;;;;;;;13.53;11.70;;;;;;;;;;5087146;28;20199;-86
2024/02/23 03:27:58;;;;;;;13.60;11.60;;;;;;;;;;5092067;28;20204;-86
2024/02/23 03:30:25;;;;;;;14.57;11.20;;;;;;;;;;5096180;28;20248;-86
2024/02/23 03:32:52;;;;;;;15.53;12.50;;;;;;;;;;5088365;28;20571;-86
2024/02/23 03:35:20;;;;;;;13.87;11.63;;;;;;;;;;5082284;28;20627;-87
2024/02/23 03:37:46;;;;;;;13.73;11.57;;;;;;;;;;5091973;28;20257;-85
2024/02/23 03:40:13;;;;;;;12.83;11.00;;;;;;;;;;5084132;28;20213;-88
2024/02/23 03:42:40;;;;;;;14.93;12.33;;;;;;;;;;5083799;28;20200;-86
2024/02/23 03:45:07;;;;;;;14.60;11.43;;;;;;;;;;5084499;28;20196;-87
2024/02/23 03:47:34;;;;;;;17.03;14.03;;;;;;;;;;5090265;28;20249;-87
2024/02/23 03:50:01;;;;;;;17.93;13.90;;;;;;;;;;5092345;28;20206;-86
2024/02/23 03:52:29;;;;;;;18.03;13.03;;;;;;;;;;5085452;28;20548;-87
2024/02/23 03:54:55;;;;;;;17.70;13.80;;;;;;;;;;5071587;28;20205;-86
2024/02/23 03:57:22;;;;;;;12.83;11.27;;;;;;;;;;5085744;28;20203;-86
2024/02/23 03:59:55;;;;;;;14.70;12.43;;;;;;;;;;5091383;28;20216;-87
2024/02/23 04:02:22;;;;;;;14.07;11.70;;;;;;;;;;5088695;28;20189;-87
2024/02/23 04:04:49;;;;;;;13.00;11.33;;;;;;;;;;5074267;28;20612;-87
2024/02/23 04:07:15;;;;;;;14.03;10.43;;;;;;;;;;5091231;28;20200;-87
2024/02/23 04:09:44;;;;;;;16.90;14.67;;;;;;;;;;5076077;28;20296;-87
2024/02/23 04:12:10;;;;;;;16.40;13.53;;;;;;;;;;5084078;28;20193;-86
2024/02/23 04:14:37;;;;;;;15.17;11.70;;;;;;;;;;5091684;28;20200;-88
2024/02/23 04:17:04;;;;;;;13.63;10.90;;;;;;;;;;5091334;28;20261;-87
2024/02/23 04:19:31;;;;;;;13.43;10.83;;;;;;;;;;5092192;28;20231;-87
2024/02/23 04:21:58;;;;;;;14.13;11.43;;;;;;;;;;5090529;28;20188;-86
2024/02/23 04:24:24;;;;;;;15.57;12.27;;;;;;;;;;5090712;28;20249;-82
2024/02/23 04:26:52;;;;;;;19.30;15.40;;;;;;;;;;5090993;28;20547;-82
2024/02/23 04:29:19;;;;;;;20.27;15.33;;;;;;;;;;5091289;28;20196;-82
2024/02/23 04:31:46;;;;;;;18.77;14.07;;;;;;;;;;5091110;28;20196;-82
2024/02/23 04:34:13;;;;;;;17.47;13.23;;;;;;;;;;5090894;28;20231;-82
2024/02/23 04:36:39;;;;;;;17.57;14.17;;;;;;;;;;5091361;28;20575;-82
2024/02/23 04:39:06;;;;;;;15.77;13.27;;;;;;;;;;5080432;28;20322;-82
2024/02/23 04:41:33;;;;;;;15.17;11.07;;;;;;;;;;5083036;28;20220;-83
2024/02/23 04:44:01;;;;;;;20.07;13.00;;;;;;;;;;5101933;28;20654;-83
2024/02/23 04:46:28;;;;;;;22.03;15.20;;;;;;;;;;5084213;28;20197;-85
2024/02/23 04:48:56;;;;;;;20.93;16.70;;;;;;;;;;5075256;28;20200;-83
2024/02/23 04:51:23;;;;;;;25.83;18.43;;;;;;;;;;5074450;28;20205;-83
2024/02/23 04:53:50;;;;;;;17.20;14.97;;;;;;;;;;5091827;28;20630;-89
2024/02/23 04:56:17;;;;;;;18.67;13.77;;;;;;;;;;5105563;28;20189;-84
2024/02/23 04:58:44;;;;;;;17.83;14.00;;;;;;;;;;5078771;28;20220;-85
2024/02/23 05:01:12;;;;;;;20.27;16.53;;;;;;;;;;5074407;28;20221;-84
2024/02/23 05:03:42;;;;;;;21.60;14.80;;;;;;;;;;5079281;28;20197;-84
2024/02/23 05:06:09;;;;;;;18.50;14.57;;;;;;;;;;5096528;28;20259;-82
2024/02/23 05:08:35;;;;;;;18.37;14.80;;;;;;;;;;5078403;28;20659;-83
2024/02/23 05:11:02;;;;;;;17.00;13.03;;;;;;;;;;5086075;28;20197;-83
2024/02/23 05:13:29;;;;;;;18.90;14.37;;;;;;;;;;5086109;28;20185;-83
2024/02/23 05:15:58;;;;;;;25.87;18.30;;;;;;;;;;5088696;28;20196;-83
2024/02/23 05:18:26;;;;;;;19.73;16.63;;;;;;;;;;5094019;28;20204;-82
2024/02/23 05:20:52;;;;;;;24.93;19.73;;;;;;;;;;5094437;28;20215;-83
2024/02/23 05:23:19;;;;;;;25.47;19.20;;;;;;;;;;5093351;28;20200;-83
2024/02/23 05:25:46;;;;;;;21.07;16.17;;;;;;;;;;5085257;28;20200;-84
2024/02/23 05:28:13;;;;;;;17.20;13.77;;;;;;;;;;5107391;28;20278;-82
2024/02/23 05:30:39;;;;;;;19.23;14.63;;;;;;;;;;5099050;28;20208;-82
2024/02/23 05:33:06;;;;;;;17.20;13.53;;;;;;;;;;5075183;28;20208;-87
2024/02/23 05:35:36;;;;;;;23.33;18.23;;;;;;;;;;5093251;28;20211;-86
2024/02/23 05:38:04;;;;;;;181.13;100.83;;;;;;;;;;5105847;28;20195;-87
2024/02/23 05:40:30;;;;;;;60.43;39.07;;;;;;;;;;5081800;28;20263;-88
2024/02/23 05:42:58;;;;;;;34.10;25.57;;;;;;;;;;5087219;28;20230;-88
2024/02/23 05:45:24;;;;;;;27.23;18.63;;;;;;;;;;5085019;28;20291;-88
2024/02/23 05:47:51;;;;;;;27.37;19.57;;;;;;;;;;5085292;28;20278;-88
2024/02/23 05:50:18;;;;;;;27.57;20.53;;;;;;;;;;5095466;28;20611;-88
2024/02/23 05:52:46;;;;;;;23.67;17.27;;;;;;;;;;5094499;28;20677;-88
2024/02/23 05:55:13;;;;;;;28.50;16.53;;;;;;;;;;5091210;28;20257;-88
2024/02/23 05:57:40;;;;;;;18.80;15.60;;;;;;;;;;5092787;28;20196;-87
2024/02/23 06:00:08;;;;;;;27.40;19.83;;;;;;;;;;5091947;28;20305;-88
2024/02/23 06:02:35;;;;;;;36.67;27.03;;;;;;;;;;5093045;28;20578;-88
2024/02/23 06:05:02;;;;;;;29.97;24.60;;;;;;;;;;5092703;28;20663;-87
2024/02/23 06:07:29;;;;;;;25.17;18.87;;;;;;;;;;5092019;28;20224;-88
2024/02/23 06:09:57;;;;;;;17.63;15.10;;;;;;;;;;5092073;28;20224;-87
2024/02/23 06:12:25;;;;;;;18.87;14.73;;;;;;;;;;5092299;28;20710;-85
2024/02/23 06:14:52;;;;;;;19.53;15.47;;;;;;;;;;5092726;28;20204;-85
2024/02/23 06:17:19;;;;;;;18.17;15.97;;;;;;;;;;5093320;28;20639;-83
2024/02/23 06:19:45;;;;;;;18.23;15.50;;;;;;;;;;5104167;28;20198;-84
2024/02/23 06:22:13;;;;;;;16.30;13.73;;;;;;;;;;5108604;28;20196;-84
2024/02/23 06:24:40;;;;;;;18.90;16.90;;;;;;;;;;5093130;28;20200;-84
2024/02/23 06:27:08;;;;;;;18.83;15.60;;;;;;;;;;5092515;28;20192;-85
2024/02/23 06:29:35;;;;;;;21.67;16.37;;;;;;;;;;5093319;28;20706;-84
2024/02/23 06:32:02;;;;;;;22.10;17.60;;;;;;;;;;5085467;28;20203;-85
2024/02/23 06:34:29;;;;;;;35.40;20.50;;;;;;;;;;5087368;28;20228;-85
2024/02/23 06:36:56;;;;;;;25.13;18.20;;;;;;;;;;5112667;28;20195;-85
2024/02/23 06:39:23;;;;;;;26.63;17.90;;;;;;;;;;5099843;28;20204;-84
2024/02/23 06:41:50;;;;;;;25.80;18.00;;;;;;;;;;5099420;28;20288;-85
2024/02/23 06:44:18;;;;;;;26.73;19.47;;;;;;;;;;5099326;28;20624;-85
2024/02/23 06:46:45;;;;;;;23.63;16.57;;;;;;;;;;5092157;28;20200;-85
2024/02/23 06:49:12;;;;;;;23.60;15.13;;;;;;;;;;5093777;28;20210;-84
2024/02/23 06:51:42;;;;;;;14.40;12.73;;;;;;;;;;5104907;28;20686;-85
2024/02/23 06:54:09;;;;;;;16.20;13.13;;;;;;;;;;5092058;28;20215;-86
2024/02/23 06:56:36;;;;;;;22.23;14.37;;;;;;;;;;5092848;28;20292;-86
2024/02/23 06:59:03;;;;;;;19.97;14.50;;;;;;;;;;5105130;28;20195;-86
2024/02/23 07:01:33;;;;;;;18.53;14.90;;;;;;;;;;5092567;28;20232;-86
2024/02/23 07:04:00;;;;;;;19.73;15.00;;;;;;;;;;5091927;28;20196;-86
2024/02/23 07:06:28;;;;;;;24.50;16.60;;;;;;;;;;5092140;28;20693;-87
2024/02/23 07:08:55;;;;;;;18.63;15.37;;;;;;;;;;5092358;28;20212;-86
2024/02/23 07:11:22;;;;;;;19.50;14.97;;;;;;;;;;5092202;28;20242;-86
2024/02/23 07:13:49;;;;;;;22.90;14.93;;;;;;;;;;5092105;28;20265;-86
2024/02/23 07:16:16;;;;;;;19.03;15.60;;;;;;;;;;5092016;28;20200;-86
2024/02/23 07:18:44;;;;;;;16.20;14.43;;;;;;;;;;5091734;28;20200;-85
2024/02/23 07:21:10;;;;;;;17.40;14.30;;;;;;;;;;5091769;28;20702;-86
2024/02/23 07:23:37;;;;;;;16.03;13.57;;;;;;;;;;5091453;28;20650;-86
2024/02/23 07:26:04;;;;;;;16.60;13.57;;;;;;;;;;5091780;28;20249;-86
2024/02/23 07:28:32;;;;;;;18.47;12.47;;;;;;;;;;5091601;28;20197;-86
2024/02/23 07:30:59;;;;;;;16.27;12.77;;;;;;;;;;5081151;28;20626;-86
2024/02/23 07:33:26;;;;;;;15.60;11.47;;;;;;;;;;5098943;28;20695;-85
2024/02/23 07:35:54;;;;;;;14.57;11.70;;;;;;;;;;5082567;28;20643;-85
2024/02/23 07:38:20;;;;;;;10.90;9.80;;;;;;;;;;5091374;28;20197;-86
2024/02/23 07:40:47;;;;;;;12.70;11.30;;;;;;;;;;5091890;28;20257;-86
2024/02/23 07:43:14;;;;;;;14.87;12.10;;;;;;;;;;5091810;28;20211;-86
2024/02/23 07:45:42;;;;;;;13.00;10.13;;;;;;;;;;5091629;28;20200;-86
2024/02/23 07:48:09;;;;;;;10.63;9.60;;;;;;;;;;5091568;28;20223;-86
2024/02/23 07:50:36;;;;;;;12.37;10.27;;;;;;;;;;5091230;28;20287;-86
2024/02/23 07:53:05;;;;;;;13.00;10.47;;;;;;;;;;5096430;28;20206;-86
2024/02/23 07:55:32;;;;;;;13.07;9.93;;;;;;;;;;5086936;28;20284;-86
2024/02/23 07:58:01;;;;;;;10.43;9.33;;;;;;;;;;5104397;28;20192;-86
2024/02/23 08:00:28;;;;;;;10.63;9.53;;;;;;;;;;5091330;28;20208;-85
2024/02/23 08:02:56;;;;;;;12.67;9.50;;;;;;;;;;5098590;28;20201;-86
2024/02/23 08:05:23;;;;;;;12.20;9.63;;;;;;;;;;5084090;28;20727;-86
2024/02/23 08:07:50;;;;;;;12.00;8.90;;;;;;;;;;5091224;28;20196;-85
2024/02/23 08:10:18;;;;;;;10.27;9.27;;;;;;;;;;5091099;28;20196;-88
2024/02/23 08:12:44;;;;;;;12.37;9.77;;;;;;;;;;5091431;28;20693;-86
2024/02/23 08:15:11;;;;;;;11.87;9.83;;;;;;;;;;5090525;28;20215;-86
2024/02/23 08:17:38;;;;;;;10.47;8.97;;;;;;;;;;5079263;28;20201;-86
2024/02/23 08:20:06;;;;;;;10.87;9.20;;;;;;;;;;5082691;28;20632;-87
2024/02/23 08:22:32;;;;;;;10.77;9.67;;;;;;;;;;5107718;28;20219;-86
2024/02/23 08:24:59;;;;;;;12.47;10.30;;;;;;;;;;5096037;28;20204;-88
2024/02/23 08:27:27;;;;;;;10.90;9.43;;;;;;;;;;5115890;28;20201;-85
2024/02/23 08:29:54;;;;;;;10.60;9.50;;;;;;;;;;5100107;28;20196;-86
2024/02/23 08:32:21;;;;;;;10.77;9.67;;;;;;;;;;5095452;28;20200;-85
2024/02/23 08:34:47;;;;;;;13.20;10.80;;;;;;;;;;5094897;28;20231;-86
2024/02/23 08:37:14;;;;;;;11.67;10.37;;;;;;;;;;5095562;28;20235;-86
2024/02/23 08:39:41;;;;;;;10.13;9.13;;;;;;;;;;5094688;28;20215;-86
2024/02/23 08:42:08;;;;;;;10.93;7.93;;;;;;;;;;5095286;28;20223;-86
2024/02/23 08:44:39;;;;;;;12.93;9.10;;;;;;;;;;5094801;28;20204;-85
2024/02/23 08:47:06;;;;;;;13.50;9.13;;;;;;;;;;5094879;28;20578;-86
2024/02/23 08:49:32;;;;;;;11.63;9.77;;;;;;;;;;5094172;28;20188;-86
2024/02/23 08:51:59;;;;;;;9.07;8.17;;;;;;;;;;5094423;28;20196;-86
2024/02/23 08:54:26;;;;;;;10.07;8.03;;;;;;;;;;5094662;28;20253;-85
2024/02/23 08:56:53;;;;;;;8.90;7.87;;;;;;;;;;5094769;28;20208;-85
2024/02/23 08:59:22;;;;;;;8.63;7.77;;;;;;;;;;5097773;28;20665;-86
2024/02/23 09:01:50;;;;;;;8.93;7.97;;;;;;;;;;5103764;28;20216;-85
2024/02/23 09:04:17;;;;;;;12.00;9.73;;;;;;;;;;5093895;28;20203;-86
2024/02/23 09:06:44;;;;;;;10.73;9.20;;;;;;;;;;5094410;28;20253;-86
2024/02/23 09:09:11;;;;;;;18.57;13.13;;;;;;;;;;5094036;28;20658;-86
2024/02/23 09:11:38;;;;;;;19.13;13.10;;;;;;;;;;5094692;28;20236;-86
2024/02/23 09:14:05;;;;;;;25.23;18.07;;;;;;;;;;5107704;28;20205;-86
2024/02/23 09:16:31;;;;;;;13.60;10.33;;;;;;;;;;5094306;28;20266;-86
2024/02/23 09:18:59;;;;;;;11.40;10.23;;;;;;;;;;5098593;28;20646;-86
2024/02/23 09:21:26;;;;;;;17.10;14.57;;;;;;;;;;5102562;28;20269;-86
2024/02/23 09:23:53;;;;;;;12.43;10.80;;;;;;;;;;5093952;28;20200;-85
2024/02/23 09:26:20;;;;;;;9.57;8.43;;;;;;;;;;5094317;28;20536;-86
2024/02/23 09:28:47;;;;;;;9.90;8.90;;;;;;;;;;5113561;28;20188;-86
2024/02/23 09:31:13;;;;;;;21.40;16.53;;;;;;;;;;5101651;28;20273;-86
2024/02/23 09:33:40;;;;;;;13.97;12.57;;;;;;;;;;5094106;28;20293;-87
2024/02/23 09:36:09;;;;;;;11.37;10.17;;;;;;;;;;5094130;28;20273;-86
2024/02/23 09:38:37;;;;;;;11.40;10.20;;;;;;;;;;5099939;28;20199;-87
2024/02/23 09:41:04;;;;;;;12.30;10.37;;;;;;;;;;5113667;28;20286;-87
2024/02/23 09:43:32;;;;;;;15.47;10.37;;;;;;;;;;5087329;28;20656;-86
2024/02/23 09:45:59;;;;;;;14.73;11.87;;;;;;;;;;5086944;28;20261;-86
2024/02/23 09:48:26;;;;;;;12.00;10.63;;;;;;;;;;5093858;28;20281;-86
2024/02/23 09:50:53;;;;;;;14.77;12.73;;;;;;;;;;5107225;28;20574;-86
2024/02/23 09:53:22;;;;;;;11.97;10.50;;;;;;;;;;5105730;28;20249;-86
2024/02/23 09:55:51;;;;;;;16.13;12.53;;;;;;;;;;5093817;28;20193;-87
2024/02/23 09:58:19;;;;;;;11.07;9.97;;;;;;;;;;5105469;28;20679;-86
2024/02/23 10:00:45;;;;;;;12.83;10.83;;;;;;;;;;5105362;28;20775;-86
2024/02/23 10:03:12;;;;;;;12.50;10.53;;;;;;;;;;5081594;28;20230;-85
2024/02/23 10:05:44;;;;;;;15.57;12.13;;;;;;;;;;5093099;28;20219;-86
2024/02/23 10:08:11;;;;;;;11.67;10.53;;;;;;;;;;5093333;28;20587;-86
2024/02/23 10:10:39;;;;;;;16.47;12.53;;;;;;;;;;5109763;28;20209;-86
2024/02/23 10:13:06;;;;;;;19.60;16.57;;;;;;;;;;5103506;28;20614;-87
2024/02/23 10:15:33;;;;;;;12.87;11.17;;;;;;;;;;5092691;28;20602;-86
2024/02/23 10:18:00;;;;;;;12.17;10.87;;;;;;;;;;5093325;28;20196;-86
2024/02/23 10:20:27;;;;;;;12.83;10.93;;;;;;;;;;5092739;28;20205;-86
2024/02/23 10:22:54;;;;;;;13.07;10.57;;;;;;;;;;5092682;28;20222;-86
2024/02/23 10:25:21;;;;;;;13.33;11.47;;;;;;;;;;5092505;28;20251;-86
2024/02/23 10:27:49;;;;;;;16.27;13.27;;;;;;;;;;5092806;28;20205;-86
2024/02/23 10:30:16;;;;;;;13.77;12.30;;;;;;;;;;5078892;28;20207;-85
2024/02/23 10:32:43;;;;;;;17.43;15.63;;;;;;;;;;5081984;28;20203;-86
2024/02/23 10:35:12;;;;;;;14.17;11.37;;;;;;;;;;5090035;28;20759;-87
2024/02/23 10:37:44;;;;;;;14.43;12.93;;;;;;;;;;5092622;28;20702;-86
2024/02/23 10:40:12;;;;;;;12.17;9.97;;;;;;;;;;5097976;28;20198;-86
2024/02/23 10:42:47;;;;;;;10.53;8.47;;;;;;;;;;5100315;28;20226;-86
2024/02/23 10:45:17;;;;;;;10.03;8.20;;;;;;;;;;5092610;28;20199;-87
2024/02/23 10:47:44;;;;;;;10.60;8.90;;;;;;;;;;5106576;28;20625;-87
2024/02/23 10:50:14;;;;;;;9.97;8.97;;;;;;;;;;5092551;28;20271;-86
2024/02/23 10:52:41;;;;;;;9.83;8.43;;;;;;;;;;5092495;28;20210;-86
2024/02/23 10:55:09;;;;;;;9.63;8.63;;;;;;;;;;5092583;28;20199;-88
2024/02/23 10:57:37;;;;;;;9.77;8.73;;;;;;;;;;5092549;28;20287;-86
2024/02/23 11:00:06;;;;;;;11.40;7.87;;;;;;;;;;5092363;28;20206;-86
2024/02/23 11:02:37;;;;;;;16.40;11.17;;;;;;;;;;5092247;28;20689;-86
2024/02/23 11:05:05;;;;;;;9.33;8.43;;;;;;;;;;5081389;28;20200;-85
2024/02/23 11:07:31;;;;;;;12.23;10.50;;;;;;;;;;5075991;28;20749;-86
2024/02/23 11:10:00;;;;;;;11.87;10.67;;;;;;;;;;5092115;28;20249;-86
2024/02/23 11:12:27;;;;;;;9.27;8.33;;;;;;;;;;5096513;28;20206;-86
2024/02/23 11:14:58;;;;;;;14.60;13.00;;;;;;;;;;5088835;28;20208;-86
2024/02/23 11:17:27;;;;;;;11.30;10.20;;;;;;;;;;5104565;28;20256;-85
2024/02/23 11:19:56;;;;;;;10.90;9.80;;;;;;;;;;5078682;28;20216;-86
2024/02/23 11:22:27;;;;;;;10.67;9.57;;;;;;;;;;5105387;28;20220;-87
2024/02/23 11:24:54;;;;;;;8.30;7.40;;;;;;;;;;5091500;28;20200;-87
2024/02/23 11:27:21;;;;;;;10.30;9.27;;;;;;;;;;5078400;28;20196;-88
2024/02/23 11:29:48;;;;;;;18.83;16.87;;;;;;;;;;5091882;28;20207;-87
2024/02/23 11:32:16;;;;;;;12.43;10.47;;;;;;;;;;5091857;28;20256;-86
2024/02/23 11:34:43;;;;;;;12.70;11.43;;;;;;;;;;5091977;28;20239;-87
2024/02/23 11:37:12;;;;;;;10.67;9.53;;;;;;;;;;5099654;28;20199;-86
2024/02/23 11:39:40;;;;;;;12.27;10.10;;;;;;;;;;5110267;28;20260;-87
2024/02/23 11:42:07;;;;;;;12.37;9.73;;;;;;;;;;5091897;28;20293;-87
2024/02/23 11:44:34;;;;;;;17.57;14.20;;;;;;;;;;5103927;28;20196;-86
2024/02/23 11:47:00;;;;;;;12.53;10.73;;;;;;;;;;5079456;28;20203;-86
2024/02/23 11:49:29;;;;;;;10.97;9.87;;;;;;;;;;5091615;28;20242;-87
2024/02/23 11:51:56;;;;;;;10.60;9.60;;;;;;;;;;5091007;28;20295;-86
2024/02/23 11:54:24;;;;;;;8.80;8.00;;;;;;;;;;5091524;28;20203;-86
2024/02/23 11:56:52;;;;;;;14.73;13.20;;;;;;;;;;5100288;28;20195;-86
2024/02/23 11:59:19;;;;;;;13.67;12.37;;;;;;;;;;5097998;28;20237;-87
2024/02/23 12:01:47;;;;;;;12.23;8.50;;;;;;;;;;5102079;28;20205;-87
2024/02/23 12:04:15;;;;;;;8.73;7.87;;;;;;;;;;5100826;28;20280;-87
2024/02/23 12:06:42;;;;;;;11.00;9.90;;;;;;;;;;5081657;28;20207;-88
2024/02/23 12:09:11;;;;;;;16.03;14.43;;;;;;;;;;5090790;28;20189;-87
2024/02/23 12:11:40;;;;;;;12.77;10.13;;;;;;;;;;5091652;28;20199;-87
2024/02/23 12:14:07;;;;;;;16.23;10.53;;;;;;;;;;5090897;28;20245;-85
2024/02/23 12:16:35;;;;;;;14.80;13.33;;;;;;;;;;5091007;28;20196;-87
2024/02/23 12:19:02;;;;;;;12.83;11.47;;;;;;;;;;5096217;28;20226;-86
2024/02/23 12:21:29;;;;;;;8.70;7.70;;;;;;;;;;5099596;28;20204;-87
2024/02/23 12:23:56;;;;;;;9.87;8.83;;;;;;;;;;5090744;28;20662;-86
2024/02/23 12:26:22;;;;;;;8.87;8.07;;;;;;;;;;5091633;28;20199;-86
2024/02/23 12:28:51;;;;;;;9.10;8.20;;;;;;;;;;5096816;28;20205;-86
2024/02/23 12:31:25;;;;;;;7.73;6.93;;;;;;;;;;5085405;28;20266;-85
2024/02/23 12:33:52;;;;;;;6.80;6.20;;;;;;;;;;5078264;28;20721;-85
2024/02/23 12:36:18;;;;;;;6.30;5.80;;;;;;;;;;5091201;28;20200;-86
2024/02/23 12:38:45;;;;;;;7.13;6.53;;;;;;;;;;5090788;28;20576;-87
2024/02/23 12:41:12;;;;;;;8.27;7.47;;;;;;;;;;5091363;28;20643;-87
2024/02/23 12:43:39;;;;;;;8.83;7.97;;;;;;;;;;5091204;28;20636;-87
2024/02/23 12:46:08;;;;;;;7.20;6.50;;;;;;;;;;5090567;28;20204;-87
2024/02/23 12:48:35;;;;;;;6.57;6.07;;;;;;;;;;5091215;28;20603;-87
2024/02/23 12:51:02;;;;;;;6.60;6.00;;;;;;;;;;5093560;28;20207;-87
2024/02/23 12:53:34;;;;;;;5.40;4.60;;;;;;;;;;5101309;28;20208;-87
2024/02/23 12:56:01;;;;;;;5.33;4.83;;;;;;;;;;5104427;28;20188;-87
2024/02/23 12:58:28;;;;;;;8.67;6.17;;;;;;;;;;5090825;28;20204;-87
2024/02/23 13:00:55;;;;;;;4.77;4.30;;;;;;;;;;5090892;28;20196;-87
2024/02/23 13:03:23;;;;;;;5.70;4.67;;;;;;;;;;5102299;28;20277;-87
2024/02/23 13:05:50;;;;;;;5.00;4.60;;;;;;;;;;5096504;28;20200;-87
2024/02/23 13:08:17;;;;;;;6.83;6.23;;;;;;;;;;5094747;28;20200;-87
2024/02/23 13:10:44;;;;;;;6.20;5.67;;;;;;;;;;5094651;28;20249;-86
2024/02/23 13:13:12;;;;;;;4.80;4.40;;;;;;;;;;5104843;28;20256;-87
2024/02/23 13:15:42;;;;;;;5.33;4.93;;;;;;;;;;5092354;28;20204;-87
2024/02/23 13:18:09;;;;;;;5.17;4.67;;;;;;;;;;5085956;28;20262;-86
2024/02/23 13:20:38;;;;;;;12.23;10.63;;;;;;;;;;5093578;28;20297;-87
2024/02/23 13:23:06;;;;;;;8.97;7.30;;;;;;;;;;5094373;28;20224;-87
2024/02/23 13:25:33;;;;;;;5.07;4.57;;;;;;;;;;5093778;28;20629;-87
2024/02/23 13:28:00;;;;;;;5.07;4.33;;;;;;;;;;5093725;28;20196;-87
2024/02/23 13:30:26;;;;;;;3.87;3.57;;;;;;;;;;5088063;28;20209;-87
2024/02/23 13:32:53;;;;;;;3.83;3.30;;;;;;;;;;5086992;28;20201;-86
2024/02/23 13:35:23;;;;;;;3.40;3.10;;;;;;;;;;5093549;28;20193;-86
2024/02/23 13:37:51;;;;;;;4.50;3.63;;;;;;;;;;5094067;28;20201;-87
2024/02/23 13:40:18;;;;;;;3.27;2.97;;;;;;;;;;5088062;28;20547;-87
2024/02/23 13:42:45;;;;;;;6.97;5.40;;;;;;;;;;5100812;28;20289;-88
2024/02/23 13:45:14;;;;;;;3.30;3.00;;;;;;;;;;5093879;28;20290;-86
2024/02/23 13:47:41;;;;;;;3.77;3.40;;;;;;;;;;5093826;28;20200;-87
2024/02/23 13:50:09;;;;;;;4.40;3.73;;;;;;;;;;5094108;28;20200;-87
2024/02/23 13:52:35;;;;;;;3.63;3.10;;;;;;;;;;5107112;28;20696;-87
2024/02/23 13:55:04;;;;;;;4.30;3.90;;;;;;;;;;5093665;28;20693;-87
2024/02/23 13:57:31;;;;;;;3.73;3.13;;;;;;;;;;5107472;28;20291;-87
2024/02/23 13:59:58;;;;;;;3.87;3.07;;;;;;;;;;5102386;28;20221;-87
2024/02/23 14:02:28;;;;;;;3.23;2.90;;;;;;;;;;5097863;28;20295;-87
2024/02/23 14:05:01;;;;;;;2.37;2.17;;;;;;;;;;5093844;28;20222;-87
2024/02/23 14:07:27;;;;;;;2.67;2.13;;;;;;;;;;5093930;28;20191;-87
2024/02/23 14:09:54;;;;;;;3.13;2.83;;;;;;;;;;5083198;28;20214;-87
2024/02/23 14:12:22;;;;;;;3.30;2.97;;;;;;;;;;5103790;28;20199;-87
2024/02/23 14:14:49;;;;;;;17.50;10.83;;;;;;;;;;5092449;28;21038;-88
2024/02/23 14:17:16;;;;;;;17.73;10.60;;;;;;;;;;5092730;28;20248;-87
2024/02/23 14:19:42;;;;;;;13.03;7.97;;;;;;;;;;5093268;28;20263;-87
2024/02/23 14:22:09;;;;;;;19.40;12.80;;;;;;;;;;5093448;28;20195;-87
2024/02/23 14:24:36;;;;;;;7.53;6.10;;;;;;;;;;5092992;28;20220;-87